Time;durP1;ratioP1;P1;durP2;ratioP2;P2;SDS_P1;SDS_P2;PMS_P1;PMS_P2;Temp;Humidity;BMP_temperature;BMP_pressure;BME280_temperature;BME280_humidity;BME280_pressure;Samples;Min_cycle;Max_cycle;Signal;HPM_P1;HPM_P2
2022/05/29 00:00:20;;;;;;;;;;;;;;;13.71;50.75;92362.19;2055042;69;20053;-73
2022/05/29 00:02:48;;;;;;;;;;;;;;;13.72;50.69;92360.09;2055231;70;20047;-73
2022/05/29 00:05:14;;;;;;;;;;;;;;;13.69;50.80;92352.88;2055156;69;20090;-73
2022/05/29 00:07:40;;;;;;;;;;;;;;;13.53;51.77;92347.25;2055571;70;20540;-73
2022/05/29 00:10:07;;;;;;;;;;;;;;;13.45;51.59;92344.78;2055222;70;20058;-73
2022/05/29 00:12:33;;;;;;;;;;;;;;;13.43;51.18;92338.34;2054994;70;20050;-72
2022/05/29 00:14:58;;;;;;;;;;;;;;;13.10;52.33;92347.41;2055321;70;20054;-73
2022/05/29 00:17:24;;;;;;;;;;;;;;;13.18;53.04;92339.28;2055381;70;20046;-73
2022/05/29 00:19:50;;;;;;;;;;;;;;;13.27;52.05;92340.41;2055124;70;20057;-73
2022/05/29 00:22:17;;;;;;;;;;;;;;;13.23;51.78;92330.38;2055047;69;20093;-73
2022/05/29 00:24:43;;;;;;;;;;;;;;;13.18;51.71;92325.16;2055404;70;20061;-72
2022/05/29 00:27:11;;;;;;;;;;;;;;;13.16;51.26;92322.25;2055367;70;20481;-72
2022/05/29 00:29:37;;;;;;;;;;;;;;;13.09;51.98;92320.50;2068071;69;20130;-73
2022/05/29 00:32:03;;;;;;;;;;;;;;;13.19;51.77;92312.47;2055163;70;20398;-73
2022/05/29 00:34:29;;;;;;;;;;;;;;;13.06;52.12;92313.31;2055102;70;20051;-74
2022/05/29 00:36:54;;;;;;;;;;;;;;;13.01;52.22;92309.56;2055129;69;20057;-73
2022/05/29 00:39:20;;;;;;;;;;;;;;;12.72;54.59;92301.88;2055234;69;20142;-73
2022/05/29 00:41:45;;;;;;;;;;;;;;;12.90;52.37;92304.81;2055345;69;20062;-74
2022/05/29 00:44:13;;;;;;;;;;;;;;;12.91;53.27;92297.81;2055308;70;20417;-74
2022/05/29 00:46:44;;;;;;;;;;;;;;;12.87;52.90;92303.25;2055262;69;20086;-74
2022/05/29 00:49:10;;;;;;;;;;;;;;;12.72;54.69;92291.31;2054946;70;20166;-74
2022/05/29 00:51:38;;;;;;;;;;;;;;;12.63;54.81;92288.75;2055043;70;20235;-72
2022/05/29 00:54:04;;;;;;;;;;;;;;;12.77;53.83;92285.84;2068252;69;20058;-74
2022/05/29 00:56:31;;;;;;;;;;;;;;;12.81;52.31;92275.47;2055007;70;20042;-74
2022/05/29 00:58:58;;;;;;;;;;;;;;;12.70;53.83;92276.38;2055193;70;20066;-74
2022/05/29 01:01:24;;;;;;;;;;;;;;;12.68;54.33;92268.53;2055331;70;20062;-74
2022/05/29 01:07:19;;;;;;;;;;;;;;;12.55;54.93;92258.03;2055042;69;20044;-74
2022/05/29 01:09:46;;;;;;;;;;;;;;;12.49;55.80;92254.22;2055483;70;20050;-74
2022/05/29 01:12:14;;;;;;;;;;;;;;;12.58;55.24;92248.31;2068488;69;20078;-75
2022/05/29 01:15:03;;;;;;;;;;;;;;;12.51;55.71;92245.81;2055628;70;20058;-75
2022/05/29 01:17:32;;;;;;;;;;;;;;;12.61;54.31;92249.13;2055567;69;20614;-74
2022/05/29 01:19:57;;;;;;;;;;;;;;;12.57;54.48;92240.47;2055127;70;20133;-75
2022/05/29 01:22:25;;;;;;;;;;;;;;;12.50;55.24;92233.81;2055313;69;20129;-74
2022/05/29 01:25:03;;;;;;;;;;;;;;;12.53;54.96;92243.13;2055550;70;20168;-74
2022/05/29 01:27:35;;;;;;;;;;;;;;;12.40;55.70;92231.25;2055192;70;20050;-74
2022/05/29 01:33:34;;;;;;;;;;;;;;;12.40;55.68;92228.44;2055405;69;20090;-72
2022/05/29 01:35:59;;;;;;;;;;;;;;;12.42;55.51;92227.81;2055143;70;20061;-73
2022/05/29 01:38:25;;;;;;;;;;;;;;;12.45;55.47;92220.88;2055563;70;20054;-73
2022/05/29 01:41:11;;;;;;;;;;;;;;;12.46;56.07;92225.91;2055564;70;20421;-72
2022/05/29 01:43:55;;;;;;;;;;;;;;;12.41;56.65;92217.84;2065249;69;20117;-72
2022/05/29 01:46:26;;;;;;;;;;;;;;;12.45;56.17;92213.13;2055392;70;20529;-72
2022/05/29 01:52:25;;;;;;;;;;;;;;;12.26;56.72;92213.66;2055612;69;20117;-72
2022/05/29 01:54:57;;;;;;;;;;;;;;;12.19;56.62;92209.84;2055472;70;20054;-73
2022/05/29 02:00:53;;;;;;;;;;;;;;;12.42;56.38;92191.13;2055219;69;20073;-73
2022/05/29 02:03:21;;;;;;;;;;;;;;;12.41;57.12;92195.28;2055328;69;20162;-72
2022/05/29 02:05:51;;;;;;;;;;;;;;;12.31;57.22;92189.16;2055421;69;20172;-72
2022/05/29 02:08:17;;;;;;;;;;;;;;;12.31;57.40;92180.72;2055688;69;20080;-73
2022/05/29 02:10:52;;;;;;;;;;;;;;;12.33;57.13;92181.53;2055633;70;20050;-73
2022/05/29 02:13:17;;;;;;;;;;;;;;;12.33;57.41;92180.81;2055742;69;20081;-72
2022/05/29 02:15:49;;;;;;;;;;;;;;;12.33;56.35;92172.34;2055504;70;20050;-72
2022/05/29 02:18:20;;;;;;;;;;;;;;;12.31;57.18;92158.13;2068389;69;20385;-73
2022/05/29 02:24:16;;;;;;;;;;;;;;;12.46;55.62;92160.97;2055192;69;20060;-72
2022/05/29 02:26:44;;;;;;;;;;;;;;;12.35;56.58;92159.03;2055262;70;20060;-73
2022/05/29 02:32:50;;;;;;;;;;;;;;;12.39;55.95;92150.75;2055352;69;20097;-73
2022/05/29 02:35:16;;;;;;;;;;;;;;;12.40;56.44;92140.19;2055250;69;20046;-73
2022/05/29 02:37:45;;;;;;;;;;;;;;;12.19;57.68;92139.28;2055188;70;20146;-73
2022/05/29 02:40:11;;;;;;;;;;;;;;;12.24;57.27;92126.09;2055448;70;20054;-73
2022/05/29 02:42:39;;;;;;;;;;;;;;;11.67;59.03;92131.88;2055395;70;20085;-73
2022/05/29 02:45:23;;;;;;;;;;;;;;;12.30;56.16;92131.28;2055577;70;20050;-73
2022/05/29 02:48:03;;;;;;;;;;;;;;;12.34;57.53;92125.81;2055700;69;20153;-74
2022/05/29 02:50:51;;;;;;;;;;;;;;;12.25;58.34;92119.06;2055648;69;20090;-74
2022/05/29 02:53:17;;;;;;;;;;;;;;;12.34;57.46;92126.53;2056137;70;20074;-74
2022/05/29 02:55:43;;;;;;;;;;;;;;;12.50;56.28;92122.97;2055801;70;20052;-74
2022/05/29 02:58:19;;;;;;;;;;;;;;;12.37;56.92;92105.53;2055676;69;20142;-74
2022/05/29 03:01:04;;;;;;;;;;;;;;;12.43;56.22;92110.69;2068527;69;20054;-74
2022/05/29 03:03:32;;;;;;;;;;;;;;;12.49;55.50;92124.34;2055663;70;20057;-74
2022/05/29 03:06:04;;;;;;;;;;;;;;;12.56;56.03;92117.63;2055289;70;20078;-74
2022/05/29 03:08:41;;;;;;;;;;;;;;;12.49;56.57;92118.72;2055578;70;20058;-73
2022/05/29 03:11:12;;;;;;;;;;;;;;;12.33;57.55;92110.25;2055649;70;20066;-74
2022/05/29 03:13:37;;;;;;;;;;;;;;;12.40;56.35;92106.31;2055659;69;20444;-74
2022/05/29 03:16:15;;;;;;;;;;;;;;;12.43;57.02;92102.97;2055750;70;20061;-74
2022/05/29 03:18:50;;;;;;;;;;;;;;;12.44;56.52;92107.22;2068556;69;20050;-74
2022/05/29 03:21:22;;;;;;;;;;;;;;;11.50;61.46;92110.66;2055584;70;20090;-72
2022/05/29 03:23:47;;;;;;;;;;;;;;;11.91;60.12;92085.13;2055516;70;20086;-73
2022/05/29 03:26:25;;;;;;;;;;;;;;;12.13;57.83;92065.63;2055372;70;20402;-73
2022/05/29 03:29:03;;;;;;;;;;;;;;;12.19;58.02;92042.63;2055426;70;20074;-73
2022/05/29 03:31:29;;;;;;;;;;;;;;;12.07;57.92;92056.19;2055384;70;20506;-74
2022/05/29 03:33:55;;;;;;;;;;;;;;;12.39;56.90;92043.50;2055476;70;20425;-75
2022/05/29 03:36:23;;;;;;;;;;;;;;;12.28;59.38;92052.16;2068562;69;20429;-74
2022/05/29 03:38:48;;;;;;;;;;;;;;;12.09;59.74;92051.34;2055609;69;20062;-75
2022/05/29 03:41:26;;;;;;;;;;;;;;;12.21;59.31;92063.19;2055563;70;20054;-75
2022/05/29 03:43:51;;;;;;;;;;;;;;;12.27;58.67;92065.53;2068553;69;20244;-75
2022/05/29 03:46:17;;;;;;;;;;;;;;;12.29;58.72;92084.66;2055425;70;20560;-74
2022/05/29 03:48:42;;;;;;;;;;;;;;;12.33;58.23;92088.41;2055270;70;20136;-74
2022/05/29 03:51:07;;;;;;;;;;;;;;;12.17;59.63;92079.94;2055478;69;20089;-75
2022/05/29 03:53:33;;;;;;;;;;;;;;;12.28;56.96;92083.19;2055576;70;20046;-74
2022/05/29 03:55:59;;;;;;;;;;;;;;;12.44;56.58;92090.28;2055559;69;20050;-74
2022/05/29 03:58:24;;;;;;;;;;;;;;;12.15;57.74;92068.56;2055503;70;20415;-74
2022/05/29 04:00:50;;;;;;;;;;;;;;;12.18;58.01;92078.56;2055465;70;20043;-74
2022/05/29 04:03:15;;;;;;;;;;;;;;;12.09;59.79;92101.41;2055510;70;20090;-74
2022/05/29 04:05:41;;;;;;;;;;;;;;;12.11;59.08;92085.31;2055529;70;20058;-75
2022/05/29 04:13:44;;;;;;;;;;;;;;;12.19;59.57;92068.03;2055599;70;20046;-74
2022/05/29 04:16:10;;;;;;;;;;;;;;;12.20;59.13;92073.03;2055511;70;20057;-74
2022/05/29 04:18:37;;;;;;;;;;;;;;;12.02;61.39;92077.84;2055420;70;20050;-74
2022/05/29 04:21:02;;;;;;;;;;;;;;;12.15;59.88;92071.38;2055466;70;20509;-75
2022/05/29 04:23:28;;;;;;;;;;;;;;;12.13;61.59;92068.44;2055618;69;20092;-74
2022/05/29 04:25:53;;;;;;;;;;;;;;;12.06;62.35;92066.00;2055491;70;20424;-73
2022/05/29 04:28:19;;;;;;;;;;;;;;;12.01;62.74;92076.38;2055090;70;20474;-75
2022/05/29 04:30:45;;;;;;;;;;;;;;;12.16;61.69;92091.84;2055501;70;20046;-75
2022/05/29 04:33:11;;;;;;;;;;;;;;;12.04;63.92;92099.75;2055389;70;20047;-74
2022/05/29 04:35:38;;;;;;;;;;;;;;;12.02;63.51;92088.41;2055389;70;20066;-74
2022/05/29 04:38:05;;;;;;;;;;;;;;;11.95;64.01;92085.28;2055387;70;20054;-74
2022/05/29 04:40:31;;;;;;;;;;;;;;;12.11;62.81;92107.16;2055486;69;20433;-74
2022/05/29 04:42:56;;;;;;;;;;;;;;;12.09;61.84;92115.50;2055694;69;20054;-75
2022/05/29 04:45:21;;;;;;;;;;;;;;;12.09;62.49;92110.59;2055901;70;20058;-75
2022/05/29 04:47:47;;;;;;;;;;;;;;;12.12;63.35;92102.97;2055582;70;20042;-75
2022/05/29 04:50:13;;;;;;;;;;;;;;;12.03;62.98;92087.03;2055895;70;20586;-75
2022/05/29 04:52:38;;;;;;;;;;;;;;;11.89;63.80;92084.28;2055871;70;20054;-75
2022/05/29 04:55:05;;;;;;;;;;;;;;;11.90;64.44;92072.34;2055863;70;20046;-75
2022/05/29 04:57:30;;;;;;;;;;;;;;;12.07;62.95;92073.09;2068867;69;20055;-74
2022/05/29 04:59:57;;;;;;;;;;;;;;;12.19;61.06;92082.13;2055990;70;20050;-74
2022/05/29 05:02:23;;;;;;;;;;;;;;;12.22;62.16;92078.00;2056099;69;20061;-75
2022/05/29 05:04:49;;;;;;;;;;;;;;;11.95;63.77;92059.16;2055458;69;20057;-75
2022/05/29 05:07:14;;;;;;;;;;;;;;;12.00;63.68;92074.19;2055843;70;20050;-74
2022/05/29 05:09:40;;;;;;;;;;;;;;;12.06;61.62;92071.66;2055871;70;20062;-74
2022/05/29 05:12:05;;;;;;;;;;;;;;;11.99;63.59;92076.28;2068740;69;20054;-74
2022/05/29 05:14:33;;;;;;;;;;;;;;;12.06;61.26;92085.75;2055857;69;20057;-74
2022/05/29 05:16:59;;;;;;;;;;;;;;;12.02;59.72;92088.41;2055839;69;20150;-74
2022/05/29 05:19:25;;;;;;;;;;;;;;;11.42;65.33;92087.72;2055746;70;20490;-74
2022/05/29 05:21:50;;;;;;;;;;;;;;;11.70;64.08;92088.31;2068810;69;20043;-74
2022/05/29 05:24:16;;;;;;;;;;;;;;;11.53;63.73;92091.75;2055984;69;20085;-75
2022/05/29 05:26:42;;;;;;;;;;;;;;;11.66;63.33;92114.22;2055996;70;20047;-75
2022/05/29 05:29:08;;;;;;;;;;;;;;;11.61;64.27;92126.69;2068801;69;20386;-75
2022/05/29 05:31:33;;;;;;;;;;;;;;;11.74;62.69;92130.09;2055683;69;20042;-74
2022/05/29 05:34:02;;;;;;;;;;;;;;;11.91;62.09;92135.13;2055731;70;20064;-75
2022/05/29 05:36:27;;;;;;;;;;;;;;;11.81;62.21;92138.19;2055658;70;20077;-76
2022/05/29 05:38:53;;;;;;;;;;;;;;;11.73;63.38;92143.47;2055808;70;20453;-75
2022/05/29 05:41:21;;;;;;;;;;;;;;;11.75;63.12;92142.81;2055524;70;20114;-74
2022/05/29 05:43:46;;;;;;;;;;;;;;;11.62;65.80;92147.88;2055828;69;20066;-74
2022/05/29 05:46:13;;;;;;;;;;;;;;;11.84;62.00;92139.78;2056081;70;20046;-74
2022/05/29 05:48:39;;;;;;;;;;;;;;;11.63;65.11;92129.59;2055692;69;20053;-75
2022/05/29 05:51:05;;;;;;;;;;;;;;;11.71;64.68;92134.88;2055791;69;20047;-75
2022/05/29 05:53:30;;;;;;;;;;;;;;;11.43;66.96;92140.63;2068484;69;20058;-75
2022/05/29 05:55:56;;;;;;;;;;;;;;;11.66;64.94;92133.97;2055358;70;20054;-74
2022/05/29 05:58:22;;;;;;;;;;;;;;;11.72;65.11;92127.88;2068780;69;20115;-75
2022/05/29 06:00:48;;;;;;;;;;;;;;;11.85;63.46;92121.47;2055678;70;20051;-74
2022/05/29 06:03:14;;;;;;;;;;;;;;;11.69;64.66;92120.72;2055640;70;20108;-75
2022/05/29 06:05:39;;;;;;;;;;;;;;;11.85;62.00;92124.31;2055792;70;20105;-74
2022/05/29 06:08:05;;;;;;;;;;;;;;;11.70;64.79;92128.53;2055803;69;20546;-75
2022/05/29 06:10:30;;;;;;;;;;;;;;;11.85;63.08;92118.66;2055771;70;20462;-76
2022/05/29 06:13:06;;;;;;;;;;;;;;;11.88;63.53;92105.41;2068815;69;20042;-74
2022/05/29 06:15:32;;;;;;;;;;;;;;;11.86;64.71;92139.84;2055987;69;20047;-75
2022/05/29 06:17:57;;;;;;;;;;;;;;;11.59;66.90;92154.78;2055881;70;20066;-74
2022/05/29 06:20:24;;;;;;;;;;;;;;;11.71;65.71;92165.91;2055837;70;20053;-74
2022/05/29 06:26:18;;;;;;;;;;;;;;;11.82;63.37;92153.00;2055833;69;20192;-75
2022/05/29 06:28:44;;;;;;;;;;;;;;;11.59;64.16;92148.41;2055785;70;20569;-75
2022/05/29 06:31:10;;;;;;;;;;;;;;;11.60;64.86;92163.97;2055758;69;20053;-75
2022/05/29 06:33:37;;;;;;;;;;;;;;;11.68;63.29;92155.88;2055755;70;20141;-75
2022/05/29 06:36:16;;;;;;;;;;;;;;;11.86;62.72;92133.50;2055796;70;20054;-74
2022/05/29 06:38:42;;;;;;;;;;;;;;;11.79;63.82;92121.19;2055720;70;20057;-74
2022/05/29 06:44:41;;;;;;;;;;;;;;;11.84;63.40;92131.31;2055829;69;20601;-74
2022/05/29 06:47:09;;;;;;;;;;;;;;;11.76;65.12;92128.06;2055813;70;20062;-74
2022/05/29 06:49:36;;;;;;;;;;;;;;;11.68;66.07;92133.31;2055681;70;20046;-74
2022/05/29 06:52:04;;;;;;;;;;;;;;;11.65;66.15;92132.50;2056683;70;20057;-74
2022/05/29 06:54:29;;;;;;;;;;;;;;;11.85;64.37;92148.97;2057864;70;20080;-73
2022/05/29 06:56:55;;;;;;;;;;;;;;;12.07;62.65;92150.00;2058169;70;20086;-74
2022/05/29 06:59:21;;;;;;;;;;;;;;;12.01;62.53;92154.66;2058143;70;20141;-73
2022/05/29 07:07:16;;;;;;;;;;;;;;;11.75;64.83;92168.19;2058132;70;20055;-74
2022/05/29 07:09:41;;;;;;;;;;;;;;;12.11;61.48;92160.75;2057662;70;20507;-76
2022/05/29 07:12:10;;;;;;;;;;;;;;;12.01;63.52;92121.53;2057793;69;20068;-75
2022/05/29 07:14:36;;;;;;;;;;;;;;;12.08;62.53;92139.44;2058128;70;20138;-75
2022/05/29 07:17:02;;;;;;;;;;;;;;;12.28;61.93;92151.69;2057832;70;20092;-75
2022/05/29 07:19:28;;;;;;;;;;;;;;;12.20;61.80;92165.41;2057671;70;20058;-75
2022/05/29 07:21:55;;;;;;;;;;;;;;;12.06;63.26;92168.31;2057817;69;20054;-76
2022/05/29 07:27:49;;;;;;;;;;;;;;;12.28;60.14;92151.69;2056586;69;20107;-75
2022/05/29 07:30:15;;;;;;;;;;;;;;;12.28;63.12;92148.09;2055959;69;20066;-75
2022/05/29 07:32:40;;;;;;;;;;;;;;;12.31;63.36;92153.22;2055822;69;20479;-75
2022/05/29 07:35:06;;;;;;;;;;;;;;;12.15;65.17;92170.13;2055776;70;20568;-76
2022/05/29 07:37:31;;;;;;;;;;;;;;;11.98;64.42;92175.66;2064149;69;20128;-75
2022/05/29 07:39:56;;;;;;;;;;;;;;;11.47;65.72;92184.47;2049533;70;20577;-75
2022/05/29 07:45:08;;;;;;;;;;;;;;;12.13;63.63;92183.41;2048834;70;20086;-75
2022/05/29 07:47:41;;;;;;;;;;;;;;;12.21;63.29;92172.50;2048950;70;20055;-74
2022/05/29 07:50:11;;;;;;;;;;;;;;;12.17;63.23;92161.03;2048882;70;20062;-75
2022/05/29 07:52:38;;;;;;;;;;;;;;;12.24;63.34;92170.50;2048449;70;20142;-77
2022/05/29 07:55:04;;;;;;;;;;;;;;;12.19;63.16;92181.63;2048397;70;20087;-75
2022/05/29 07:57:29;;;;;;;;;;;;;;;12.32;62.87;92182.88;2048914;70;20086;-75
2022/05/29 07:59:56;;;;;;;;;;;;;;;12.28;64.38;92179.16;2049001;70;20108;-74
2022/05/29 08:02:21;;;;;;;;;;;;;;;12.33;64.22;92173.06;2048419;70;20096;-75
2022/05/29 08:04:47;;;;;;;;;;;;;;;12.58;63.58;92166.41;2048337;70;20071;-75
2022/05/29 08:07:15;;;;;;;;;;;;;;;12.77;60.76;92165.13;2048763;70;20402;-75
2022/05/29 08:09:40;;;;;;;;;;;;;;;12.60;60.89;92160.13;2048705;70;20121;-74
2022/05/29 08:12:07;;;;;;;;;;;;;;;12.86;59.32;92147.16;2048790;70;20150;-74
2022/05/29 08:14:33;;;;;;;;;;;;;;;12.83;62.11;92137.19;2048904;70;20054;-75
2022/05/29 08:16:58;;;;;;;;;;;;;;;12.96;59.70;92152.53;2048160;70;20055;-74
2022/05/29 08:19:24;;;;;;;;;;;;;;;12.22;64.30;92168.31;2049227;70;20065;-73
2022/05/29 08:21:49;;;;;;;;;;;;;;;12.43;63.21;92181.28;2049270;70;20050;-73
2022/05/29 08:32:30;;;;;;;;;;;;;;;11.82;63.08;92206.59;2049390;70;20043;-76
2022/05/29 08:34:56;;;;;;;;;;;;;;;11.60;63.88;92203.44;2045987;70;20082;-75
2022/05/29 08:37:21;;;;;;;;;;;;;;;11.38;65.75;92208.69;2051010;70;20058;-75
2022/05/29 08:39:47;;;;;;;;;;;;;;;11.68;63.41;92201.00;2056175;69;20528;-76
2022/05/29 08:42:13;;;;;;;;;;;;;;;12.35;60.67;92206.28;2056049;70;20047;-75
2022/05/29 08:44:42;;;;;;;;;;;;;;;12.08;60.63;92188.13;2055874;70;20055;-77
2022/05/29 08:47:07;;;;;;;;;;;;;;;12.50;58.39;92170.97;2055843;70;20106;-75
2022/05/29 08:49:47;;;;;;;;;;;;;;;11.86;61.25;92178.63;2055852;70;20077;-73
2022/05/29 08:52:15;;;;;;;;;;;;;;;12.45;60.19;92184.16;2055858;70;20498;-75
2022/05/29 08:54:44;;;;;;;;;;;;;;;12.52;62.57;92190.84;2055962;69;20050;-74
2022/05/29 08:57:12;;;;;;;;;;;;;;;12.49;64.49;92194.94;2055885;70;20076;-76
2022/05/29 08:59:57;;;;;;;;;;;;;;;12.55;63.90;92183.91;2056182;70;20078;-75
2022/05/29 09:02:40;;;;;;;;;;;;;;;12.80;63.38;92202.69;2068869;69;20062;-75
2022/05/29 09:05:11;;;;;;;;;;;;;;;12.93;60.70;92207.50;2068717;69;20112;-76
2022/05/29 09:07:38;;;;;;;;;;;;;;;13.05;60.55;92198.81;2055937;70;20050;-76
2022/05/29 09:10:20;;;;;;;;;;;;;;;13.03;59.87;92205.13;2055813;70;20137;-76
2022/05/29 09:12:54;;;;;;;;;;;;;;;13.26;58.96;92220.25;2055895;69;20046;-75
2022/05/29 09:15:30;;;;;;;;;;;;;;;13.09;58.55;92227.25;2055540;70;20076;-75
2022/05/29 09:17:58;;;;;;;;;;;;;;;13.00;58.36;92217.69;2055802;70;20061;-74
2022/05/29 09:20:32;;;;;;;;;;;;;;;13.07;58.66;92196.81;2056144;70;20514;-75
2022/05/29 09:23:01;;;;;;;;;;;;;;;13.35;61.93;92180.38;2055887;69;20163;-75
2022/05/29 09:25:30;;;;;;;;;;;;;;;13.32;58.34;92167.53;2055904;70;20145;-74
2022/05/29 09:27:57;;;;;;;;;;;;;;;13.42;58.77;92159.47;2055830;70;20050;-73
2022/05/29 09:30:23;;;;;;;;;;;;;;;13.45;57.74;92175.13;2055963;69;20086;-74
2022/05/29 09:32:59;;;;;;;;;;;;;;;12.68;60.03;92177.44;2055737;70;20086;-75
2022/05/29 09:35:35;;;;;;;;;;;;;;;13.05;59.04;92187.53;2055734;70;20518;-75
2022/05/29 09:38:04;;;;;;;;;;;;;;;12.00;61.66;92201.13;2055706;70;20058;-74
2022/05/29 09:40:41;;;;;;;;;;;;;;;12.50;58.81;92207.69;2055750;70;20567;-74
2022/05/29 09:43:17;;;;;;;;;;;;;;;12.88;57.45;92191.75;2068907;69;20099;-74
2022/05/29 09:45:42;;;;;;;;;;;;;;;12.97;57.61;92190.75;2055766;70;20081;-74
2022/05/29 09:51:16;;;;;;;;;;;;;;;12.53;59.07;92183.81;2055695;70;20137;-74
2022/05/29 09:53:45;;;;;;;;;;;;;;;12.70;56.73;92183.19;2055758;70;20505;-77
2022/05/29 09:56:12;;;;;;;;;;;;;;;12.31;56.04;92189.91;2068779;69;20155;-75
2022/05/29 09:58:38;;;;;;;;;;;;;;;12.63;55.44;92181.44;2055783;70;20077;-76
2022/05/29 10:01:06;;;;;;;;;;;;;;;12.53;55.14;92189.47;2055748;70;20074;-75
2022/05/29 10:03:46;;;;;;;;;;;;;;;12.87;58.19;92199.47;2055810;70;20138;-76
2022/05/29 10:06:12;;;;;;;;;;;;;;;13.17;58.20;92202.19;2055684;70;20486;-77
2022/05/29 10:08:38;;;;;;;;;;;;;;;13.20;57.12;92195.25;2055634;70;20076;-76
2022/05/29 10:11:19;;;;;;;;;;;;;;;13.20;58.17;92187.50;2055500;70;20090;-75
2022/05/29 10:13:45;;;;;;;;;;;;;;;13.44;57.55;92184.28;2055791;70;20061;-75
2022/05/29 10:19:47;;;;;;;;;;;;;;;13.68;54.86;92153.44;2055650;69;20146;-76
2022/05/29 10:22:12;;;;;;;;;;;;;;;13.86;53.46;92153.44;2055710;69;20050;-76
2022/05/29 10:24:40;;;;;;;;;;;;;;;13.52;53.23;92155.63;2055827;69;20050;-75
2022/05/29 10:27:09;;;;;;;;;;;;;;;13.05;55.16;92164.91;2055830;69;20046;-75
2022/05/29 10:29:37;;;;;;;;;;;;;;;13.55;54.58;92196.72;2055604;69;20076;-75
2022/05/29 10:32:04;;;;;;;;;;;;;;;12.86;54.09;92202.94;2055325;69;20049;-76
2022/05/29 10:34:32;;;;;;;;;;;;;;;13.44;52.70;92189.94;2055553;70;20046;-76
2022/05/29 10:36:57;;;;;;;;;;;;;;;13.89;52.90;92192.50;2055614;69;20065;-76
2022/05/29 10:39:25;;;;;;;;;;;;;;;14.13;53.26;92189.19;2055579;70;20038;-76
2022/05/29 10:45:21;;;;;;;;;;;;;;;14.29;50.57;92177.75;2055750;69;20058;-76
2022/05/29 10:47:52;;;;;;;;;;;;;;;14.50;50.27;92171.53;2055675;70;20050;-76
2022/05/29 10:50:21;;;;;;;;;;;;;;;14.42;50.77;92180.41;2055554;70;20082;-76
2022/05/29 10:52:56;;;;;;;;;;;;;;;13.64;51.38;92175.91;2055703;69;20486;-76
2022/05/29 10:55:30;;;;;;;;;;;;;;;14.11;51.04;92166.44;2055627;70;20062;-75
2022/05/29 10:58:01;;;;;;;;;;;;;;;14.50;54.23;92163.03;2055751;70;20540;-76
2022/05/29 11:00:37;;;;;;;;;;;;;;;15.00;50.54;92171.94;2055689;70;20050;-75
2022/05/29 11:03:23;;;;;;;;;;;;;;;14.26;47.67;92162.81;2055651;70;20105;-75
2022/05/29 11:05:50;;;;;;;;;;;;;;;14.54;48.78;92174.50;2055709;70;20061;-75
2022/05/29 11:08:34;;;;;;;;;;;;;;;14.49;48.75;92176.47;2055671;70;20090;-75
2022/05/29 11:11:18;;;;;;;;;;;;;;;14.73;49.31;92178.75;2055508;70;20483;-74
2022/05/29 11:13:46;;;;;;;;;;;;;;;14.06;49.71;92174.06;2054632;69;20130;-74
2022/05/29 11:16:27;;;;;;;;;;;;;;;13.98;48.60;92165.97;2055128;69;20042;-74
2022/05/29 11:18:58;;;;;;;;;;;;;;;14.19;47.61;92152.63;2054892;70;20047;-74
2022/05/29 11:21:40;;;;;;;;;;;;;;;14.95;46.67;92145.56;2055553;69;20120;-75
2022/05/29 11:24:12;;;;;;;;;;;;;;;14.87;45.97;92124.72;2055569;69;20054;-75
2022/05/29 11:26:56;;;;;;;;;;;;;;;14.64;46.83;92118.25;2055681;70;20643;-75
2022/05/29 11:29:31;;;;;;;;;;;;;;;14.45;47.38;92116.09;2055692;70;20560;-75
2022/05/29 11:32:03;;;;;;;;;;;;;;;13.75;47.22;92135.34;2055672;70;20066;-74
2022/05/29 11:34:45;;;;;;;;;;;;;;;14.01;47.73;92132.81;2055470;70;20495;-75
2022/05/29 11:37:28;;;;;;;;;;;;;;;14.85;46.48;92144.47;2055637;70;20155;-74
2022/05/29 11:40:13;;;;;;;;;;;;;;;15.43;46.17;92142.25;2055766;69;20043;-74
2022/05/29 11:52:01;;;;;;;;;;;;;;;14.85;44.92;92104.81;2055465;70;20066;-74
2022/05/29 11:54:42;;;;;;;;;;;;;;;15.56;44.80;92095.88;2055437;70;20054;-74
2022/05/29 11:57:19;;;;;;;;;;;;;;;16.82;43.64;92079.16;2055519;70;20545;-74
2022/05/29 11:59:44;;;;;;;;;;;;;;;18.10;41.51;92089.50;2055069;69;20050;-75
2022/05/29 12:02:36;;;;;;;;;;;;;;;20.17;36.88;92092.16;2055498;70;20405;-76
2022/05/29 12:05:20;;;;;;;;;;;;;;;21.81;35.75;92104.28;2055494;69;20059;-73
2022/05/29 12:11:21;;;;;;;;;;;;;;;26.39;28.10;92109.25;2055211;70;20513;-74
2022/05/29 12:14:07;;;;;;;;;;;;;;;27.12;25.38;92110.78;2055254;70;20050;-73
2022/05/29 12:16:35;;;;;;;;;;;;;;;27.46;25.14;92112.59;2055303;69;20046;-73
2022/05/29 12:19:03;;;;;;;;;;;;;;;23.35;28.84;92092.44;2055144;70;20046;-73
2022/05/29 12:21:51;;;;;;;;;;;;;;;19.75;34.28;92085.06;2051908;70;20111;-71
2022/05/29 12:24:23;;;;;;;;;;;;;;;20.99;33.44;92057.56;2055130;69;20513;-75
2022/05/29 12:27:02;;;;;;;;;;;;;;;19.99;34.84;92066.88;2055284;69;20070;-73
2022/05/29 12:29:32;;;;;;;;;;;;;;;21.08;35.12;92063.41;2055438;69;20062;-74
2022/05/29 12:32:11;;;;;;;;;;;;;;;20.85;35.07;92066.00;2055365;70;20055;-73
2022/05/29 12:34:43;;;;;;;;;;;;;;;20.93;34.14;92062.50;2055322;70;20046;-74
2022/05/29 12:37:27;;;;;;;;;;;;;;;21.39;33.14;92055.88;2055245;70;20497;-74
2022/05/29 12:40:12;;;;;;;;;;;;;;;21.53;33.55;92053.16;2055250;70;20109;-74
2022/05/29 12:42:56;;;;;;;;;;;;;;;20.59;34.74;92052.06;2055075;70;20510;-73
2022/05/29 12:45:23;;;;;;;;;;;;;;;19.91;35.60;92061.03;2055313;69;20043;-74
2022/05/29 12:48:06;;;;;;;;;;;;;;;20.69;35.93;92046.47;2055207;70;20077;-75
2022/05/29 12:50:39;;;;;;;;;;;;;;;19.20;34.59;92051.94;2068242;69;20055;-74
2022/05/29 12:53:20;;;;;;;;;;;;;;;19.75;36.26;92058.66;2055334;70;20053;-74
2022/05/29 12:55:45;;;;;;;;;;;;;;;19.42;36.78;92058.03;2055282;70;20573;-75
2022/05/29 12:58:23;;;;;;;;;;;;;;;17.98;38.12;92052.94;2055273;70;20137;-73
2022/05/29 13:00:54;;;;;;;;;;;;;;;19.21;36.39;92056.97;2055361;70;20074;-76
2022/05/29 13:03:35;;;;;;;;;;;;;;;18.39;37.38;92059.56;2055422;70;20050;-74
2022/05/29 13:06:20;;;;;;;;;;;;;;;17.92;39.12;92056.38;2055833;70;20145;-73
2022/05/29 13:09:10;;;;;;;;;;;;;;;18.49;38.92;92054.06;2055758;70;20149;-73
2022/05/29 13:11:37;;;;;;;;;;;;;;;18.33;38.37;92050.88;2055942;70;20112;-74
2022/05/29 13:14:04;;;;;;;;;;;;;;;18.51;37.87;92056.97;2055768;70;20042;-74
2022/05/29 13:16:29;;;;;;;;;;;;;;;18.45;38.23;92051.13;2056004;69;20147;-77
2022/05/29 13:19:15;;;;;;;;;;;;;;;18.55;37.84;92051.34;2068543;69;20158;-76
2022/05/29 13:22:04;;;;;;;;;;;;;;;18.06;37.09;92058.84;2055811;69;20515;-75
2022/05/29 13:24:32;;;;;;;;;;;;;;;17.85;36.83;92046.25;2056007;69;20467;-73
2022/05/29 13:27:09;;;;;;;;;;;;;;;17.24;38.14;92045.44;2055860;70;20050;-73
2022/05/29 13:29:38;;;;;;;;;;;;;;;17.84;37.59;92044.78;2055658;69;20086;-73
2022/05/29 13:32:14;;;;;;;;;;;;;;;18.66;38.03;92033.06;2055692;70;20415;-74
2022/05/29 13:34:41;;;;;;;;;;;;;;;18.40;37.18;92035.34;2055546;70;20057;-72
2022/05/29 13:37:09;;;;;;;;;;;;;;;17.88;38.04;92038.47;2055721;69;20082;-75
2022/05/29 13:39:53;;;;;;;;;;;;;;;16.87;38.58;92043.03;2055695;70;20046;-73
2022/05/29 13:42:23;;;;;;;;;;;;;;;17.15;38.69;92048.75;2055742;70;20054;-75
2022/05/29 13:44:49;;;;;;;;;;;;;;;16.37;41.19;92043.03;2055683;70;20114;-74
2022/05/29 13:47:22;;;;;;;;;;;;;;;15.99;43.68;92037.69;2055706;69;20086;-72
2022/05/29 13:53:28;;;;;;;;;;;;;;;17.43;41.59;92035.25;2055783;69;20483;-74
2022/05/29 13:56:03;;;;;;;;;;;;;;;17.70;40.94;92045.16;2055148;69;20090;-74
2022/05/29 14:04:14;;;;;;;;;;;;;;;15.84;45.27;92045.00;2055729;70;20506;-72
2022/05/29 14:06:42;;;;;;;;;;;;;;;16.16;44.33;92036.03;2055667;70;20097;-75
2022/05/29 14:09:08;;;;;;;;;;;;;;;15.58;46.05;92044.16;2055769;70;20066;-74
2022/05/29 14:11:52;;;;;;;;;;;;;;;15.19;46.76;92040.06;2055608;70;20050;-74
2022/05/29 14:14:30;;;;;;;;;;;;;;;15.44;47.18;92038.75;2068593;69;20466;-76
2022/05/29 14:16:59;;;;;;;;;;;;;;;14.51;49.32;92048.38;2055577;70;20482;-77
2022/05/29 14:19:31;;;;;;;;;;;;;;;14.77;48.62;92045.75;2068603;69;20482;-74
2022/05/29 14:21:56;;;;;;;;;;;;;;;15.29;47.85;92048.91;2055631;69;20070;-72
2022/05/29 14:24:27;;;;;;;;;;;;;;;14.59;49.52;92054.31;2068557;69;20559;-72
2022/05/29 14:27:14;;;;;;;;;;;;;;;13.96;49.91;92044.22;2055737;70;20046;-72